Back to Top

Language: 

My Weather Underground Personal Weather Station Historical Data with Graphs...

Delerius Weather Station Historical Data
Daily Summary for April 13, 2017 Units:  Both    English   Metric
« Previous Day
Next Day »
Daily Weekly Monthly Yearly Custom
  High: Low: Average:
Temperature: 54.7 °F /  12.6 °C 42.4 °F /  5.8 °C 48 °F /  8.9 °C
Dew Point: 42.2 °F /  5.7 °C 37.4 °F /  3 °C 39.7 °F /  4.3 °C
Humidity: 86 % 59 % 74 %
Wind Speed: 13.0 mph /  20.9 km/h - 8 mph /  12.9 km/h
Wind Gust: 24.0 mph /  38.6 km/h - -
Wind:- - WNW
Pressure: 30.04 in /  1017.2 hPa 29.99 in /  1015.5 hPa -
Precipitation: 0.00 in /  0 mm    
Historical Graphs
 
 
Tabular Data for April 13, 2017
Time Temperature Dew Point Pressure Wind Wind Speed Wind Gust Humidity Rainfall Rate (Hourly) solar Conditions
00:04 44.6 °F /  7 °C 39.1 °F /  3.9 °C 30.00 in /  1015.8 hPa WNW 12.0 mph /  19.3 km/h 20.0 mph /  32.2 km/h 81 % 0.00 in /  0 mm 0 W/m2
00:09 44.6 °F /  7 °C 39.1 °F /  3.9 °C 29.99 in /  1015.5 hPa WNW 10.0 mph /  16.1 km/h 20.0 mph /  32.2 km/h 81 % 0.00 in /  0 mm 0 W/m2
00:14 44.4 °F /  6.9 °C 39.0 °F /  3.9 °C 29.99 in /  1015.5 hPa WNW 9.0 mph /  14.5 km/h 18.0 mph /  29 km/h 81 % 0.00 in /  0 mm 0 W/m2
00:19 44.4 °F /  6.9 °C 39.0 °F /  3.9 °C 29.99 in /  1015.5 hPa WNW 10.0 mph /  16.1 km/h 18.0 mph /  29 km/h 81 % 0.00 in /  0 mm 0 W/m2
00:24 44.4 °F /  6.9 °C 39.0 °F /  3.9 °C 29.99 in /  1015.5 hPa WNW 10.0 mph /  16.1 km/h 20.0 mph /  32.2 km/h 81 % 0.00 in /  0 mm 0 W/m2
00:29 44.4 °F /  6.9 °C 39.0 °F /  3.9 °C 29.99 in /  1015.5 hPa WNW 10.0 mph /  16.1 km/h 20.0 mph /  32.2 km/h 81 % 0.00 in /  0 mm 0 W/m2
00:34 44.4 °F /  6.9 °C 39.0 °F /  3.9 °C 30.00 in /  1015.8 hPa WNW 10.0 mph /  16.1 km/h 20.0 mph /  32.2 km/h 81 % 0.00 in /  0 mm 0 W/m2
00:39 44.4 °F /  6.9 °C 39.0 °F /  3.9 °C 30.00 in /  1015.8 hPa WNW 10.0 mph /  16.1 km/h 20.0 mph /  32.2 km/h 81 % 0.00 in /  0 mm 0 W/m2
00:44 44.4 °F /  6.9 °C 39.0 °F /  3.9 °C 30.00 in /  1015.8 hPa West 10.0 mph /  16.1 km/h 20.0 mph /  32.2 km/h 81 % 0.00 in /  0 mm 0 W/m2
00:49 44.4 °F /  6.9 °C 39.0 °F /  3.9 °C 30.00 in /  1015.8 hPa West 8.0 mph /  12.9 km/h 15.0 mph /  24.1 km/h 81 % 0.00 in /  0 mm 0 W/m2
00:54 44.2 °F /  6.8 °C 38.8 °F /  3.8 °C 30.00 in /  1015.8 hPa West 5.0 mph /  8 km/h 12.0 mph /  19.3 km/h 81 % 0.00 in /  0 mm 0 W/m2
00:59 44.2 °F /  6.8 °C 38.8 °F /  3.8 °C 30.00 in /  1015.8 hPa WNW 6.0 mph /  9.7 km/h 14.0 mph /  22.5 km/h 81 % 0.00 in /  0 mm 0 W/m2
01:04 44.2 °F /  6.8 °C 38.8 °F /  3.8 °C 30.00 in /  1015.8 hPa WNW 6.0 mph /  9.7 km/h 14.0 mph /  22.5 km/h 81 % 0.00 in /  0 mm 0 W/m2
01:09 44.2 °F /  6.8 °C 38.8 °F /  3.8 °C 30.00 in /  1015.8 hPa WNW 3.0 mph /  4.8 km/h 12.0 mph /  19.3 km/h 81 % 0.00 in /  0 mm 0 W/m2
01:14 44.1 °F /  6.7 °C 38.6 °F /  3.7 °C 30.01 in /  1016.1 hPa West 1.0 mph /  1.6 km/h 7.0 mph /  11.3 km/h 81 % 0.00 in /  0 mm 0 W/m2
01:19 43.9 °F /  6.6 °C 38.4 °F /  3.6 °C 30.01 in /  1016.1 hPa Calm   2.0 mph /  3.2 km/h 81 % 0.00 in /  0 mm 0 W/m2
01:24 43.5 °F /  6.4 °C 37.8 °F /  3.2 °C 30.01 in /  1016.1 hPa Calm   2.0 mph /  3.2 km/h 80 % 0.00 in /  0 mm 0 W/m2
01:29 43.3 °F /  6.3 °C 37.9 °F /  3.3 °C 30.01 in /  1016.1 hPa Calm   6.0 mph /  9.7 km/h 81 % 0.00 in /  0 mm 0 W/m2
01:35 43.2 °F /  6.2 °C 37.4 °F /  3 °C 30.01 in /  1016.1 hPa WNW 3.0 mph /  4.8 km/h 11.0 mph /  17.7 km/h 80 % 0.00 in /  0 mm 0 W/m2
01:40 43.2 °F /  6.2 °C 37.4 °F /  3 °C 30.01 in /  1016.1 hPa WNW 5.0 mph /  8 km/h 11.0 mph /  17.7 km/h 80 % 0.00 in /  0 mm 0 W/m2
01:45 43.2 °F /  6.2 °C 37.4 °F /  3 °C 30.01 in /  1016.1 hPa WNW 7.0 mph /  11.3 km/h 15.0 mph /  24.1 km/h 80 % 0.00 in /  0 mm 0 W/m2
01:50 43.2 °F /  6.2 °C 37.4 °F /  3 °C 30.00 in /  1015.8 hPa WNW 8.0 mph /  12.9 km/h 15.0 mph /  24.1 km/h 80 % 0.00 in /  0 mm 0 W/m2
01:55 43.3 °F /  6.3 °C 37.9 °F /  3.3 °C 30.01 in /  1016.1 hPa NW 7.0 mph /  11.3 km/h 13.0 mph /  20.9 km/h 81 % 0.00 in /  0 mm 0 W/m2
02:00 43.3 °F /  6.3 °C 37.9 °F /  3.3 °C 30.01 in /  1016.1 hPa WNW 8.0 mph /  12.9 km/h 14.0 mph /  22.5 km/h 81 % 0.00 in /  0 mm 0 W/m2
02:05 43.3 °F /  6.3 °C 38.2 °F /  3.4 °C 30.01 in /  1016.1 hPa WNW 9.0 mph /  14.5 km/h 15.0 mph /  24.1 km/h 82 % 0.00 in /  0 mm 0 W/m2
02:10 43.5 °F /  6.4 °C 38.4 °F /  3.6 °C 30.01 in /  1016.1 hPa WNW 10.0 mph /  16.1 km/h 20.0 mph /  32.2 km/h 82 % 0.00 in /  0 mm 0 W/m2
02:15 43.5 °F /  6.4 °C 38.4 °F /  3.6 °C 30.01 in /  1016.1 hPa WNW 10.0 mph /  16.1 km/h 21.0 mph /  33.8 km/h 82 % 0.00 in /  0 mm 0 W/m2
02:20 43.5 °F /  6.4 °C 38.4 °F /  3.6 °C 30.01 in /  1016.1 hPa WNW 10.0 mph /  16.1 km/h 21.0 mph /  33.8 km/h 82 % 0.00 in /  0 mm 0 W/m2
02:25 43.5 °F /  6.4 °C 38.4 °F /  3.6 °C 30.01 in /  1016.1 hPa WNW 11.0 mph /  17.7 km/h 19.0 mph /  30.6 km/h 82 % 0.00 in /  0 mm 0 W/m2
02:30 43.5 °F /  6.4 °C 38.4 °F /  3.6 °C 30.00 in /  1015.8 hPa WNW 10.0 mph /  16.1 km/h 19.0 mph /  30.6 km/h 82 % 0.00 in /  0 mm 0 W/m2
02:35 43.3 °F /  6.3 °C 38.2 °F /  3.4 °C 30.01 in /  1016.1 hPa WNW 8.0 mph /  12.9 km/h 14.0 mph /  22.5 km/h 82 % 0.00 in /  0 mm 0 W/m2
02:40 43.3 °F /  6.3 °C 38.2 °F /  3.4 °C 30.01 in /  1016.1 hPa WNW 8.0 mph /  12.9 km/h 14.0 mph /  22.5 km/h 82 % 0.00 in /  0 mm 0 W/m2
02:45 43.3 °F /  6.3 °C 38.5 °F /  3.6 °C 30.01 in /  1016.1 hPa WNW 9.0 mph /  14.5 km/h 16.0 mph /  25.7 km/h 83 % 0.00 in /  0 mm 0 W/m2
02:50 43.2 °F /  6.2 °C 38.3 °F /  3.5 °C 30.00 in /  1015.8 hPa WNW 9.0 mph /  14.5 km/h 16.0 mph /  25.7 km/h 83 % 0.00 in /  0 mm 0 W/m2
02:55 43.2 °F /  6.2 °C 38.3 °F /  3.5 °C 30.00 in /  1015.8 hPa WNW 10.0 mph /  16.1 km/h 18.0 mph /  29 km/h 83 % 0.00 in /  0 mm 0 W/m2
03:00 43.2 °F /  6.2 °C 38.7 °F /  3.7 °C 30.00 in /  1015.8 hPa WNW 11.0 mph /  17.7 km/h 18.0 mph /  29 km/h 84 % 0.00 in /  0 mm 0 W/m2
03:05 43.2 °F /  6.2 °C 38.7 °F /  3.7 °C 30.00 in /  1015.8 hPa WNW 10.0 mph /  16.1 km/h 18.0 mph /  29 km/h 84 % 0.00 in /  0 mm 0 W/m2
03:10 43.2 °F /  6.2 °C 38.7 °F /  3.7 °C 30.00 in /  1015.8 hPa WNW 10.0 mph /  16.1 km/h 19.0 mph /  30.6 km/h 84 % 0.00 in /  0 mm 0 W/m2
03:15 43.3 °F /  6.3 °C 38.8 °F /  3.8 °C 30.00 in /  1015.8 hPa WNW 10.0 mph /  16.1 km/h 19.0 mph /  30.6 km/h 84 % 0.00 in /  0 mm 0 W/m2
03:20 43.5 °F /  6.4 °C 39.0 °F /  3.9 °C 30.00 in /  1015.8 hPa WNW 9.0 mph /  14.5 km/h 18.0 mph /  29 km/h 84 % 0.00 in /  0 mm 0 W/m2
03:25 43.5 °F /  6.4 °C 39.0 °F /  3.9 °C 30.00 in /  1015.8 hPa WNW 7.0 mph /  11.3 km/h 18.0 mph /  29 km/h 84 % 0.00 in /  0 mm 0 W/m2
03:30 43.5 °F /  6.4 °C 39.0 °F /  3.9 °C 30.00 in /  1015.8 hPa West 5.0 mph /  8 km/h 12.0 mph /  19.3 km/h 84 % 0.00 in /  0 mm 0 W/m2
03:35 43.3 °F /  6.3 °C 38.8 °F /  3.8 °C 30.00 in /  1015.8 hPa West 4.0 mph /  6.4 km/h 10.0 mph /  16.1 km/h 84 % 0.00 in /  0 mm 0 W/m2
03:40 43.3 °F /  6.3 °C 38.8 °F /  3.8 °C 30.00 in /  1015.8 hPa WNW 5.0 mph /  8 km/h 10.0 mph /  16.1 km/h 84 % 0.00 in /  0 mm 0 W/m2
03:45 43.3 °F /  6.3 °C 39.1 °F /  3.9 °C 30.00 in /  1015.8 hPa WNW 4.0 mph /  6.4 km/h 9.0 mph /  14.5 km/h 85 % 0.00 in /  0 mm 0 W/m2
03:50 43.3 °F /  6.3 °C 39.1 °F /  3.9 °C 30.00 in /  1015.8 hPa WNW 2.0 mph /  3.2 km/h 8.0 mph /  12.9 km/h 85 % 0.00 in /  0 mm 0 W/m2
03:55 43.2 °F /  6.2 °C 39.0 °F /  3.9 °C 30.01 in /  1016.1 hPa West 3.0 mph /  4.8 km/h 10.0 mph /  16.1 km/h 85 % 0.00 in /  0 mm 0 W/m2
04:00 43.2 °F /  6.2 °C 38.7 °F /  3.7 °C 30.00 in /  1015.8 hPa West 5.0 mph /  8 km/h 10.0 mph /  16.1 km/h 84 % 0.00 in /  0 mm 0 W/m2
04:05 43.0 °F /  6.1 °C 38.8 °F /  3.8 °C 30.00 in /  1015.8 hPa WNW 6.0 mph /  9.7 km/h 14.0 mph /  22.5 km/h 85 % 0.00 in /  0 mm 0 W/m2
04:10 43.0 °F /  6.1 °C 38.8 °F /  3.8 °C 29.99 in /  1015.5 hPa WNW 9.0 mph /  14.5 km/h 19.0 mph /  30.6 km/h 85 % 0.00 in /  0 mm 0 W/m2
04:15 43.2 °F /  6.2 °C 38.7 °F /  3.7 °C 29.99 in /  1015.5 hPa WNW 10.0 mph /  16.1 km/h 19.0 mph /  30.6 km/h 84 % 0.00 in /  0 mm 0 W/m2
04:20 43.2 °F /  6.2 °C 38.7 °F /  3.7 °C 30.00 in /  1015.8 hPa WNW 11.0 mph /  17.7 km/h 24.0 mph /  38.6 km/h 84 % 0.00 in /  0 mm 0 W/m2
04:25 43.2 °F /  6.2 °C 38.7 °F /  3.7 °C 30.00 in /  1015.8 hPa WNW 11.0 mph /  17.7 km/h 24.0 mph /  38.6 km/h 84 % 0.00 in /  0 mm 0 W/m2
04:30 43.2 °F /  6.2 °C 38.7 °F /  3.7 °C 30.00 in /  1015.8 hPa WNW 9.0 mph /  14.5 km/h 15.0 mph /  24.1 km/h 84 % 0.00 in /  0 mm 0 W/m2
04:35 43.0 °F /  6.1 °C 38.5 °F /  3.6 °C 30.00 in /  1015.8 hPa WNW 8.0 mph /  12.9 km/h 13.0 mph /  20.9 km/h 84 % 0.00 in /  0 mm 0 W/m2
04:40 43.0 °F /  6.1 °C 38.5 °F /  3.6 °C 30.00 in /  1015.8 hPa WNW 9.0 mph /  14.5 km/h 15.0 mph /  24.1 km/h 84 % 0.00 in /  0 mm 0 W/m2
04:45 42.8 °F /  6 °C 38.3 °F /  3.5 °C 29.99 in /  1015.5 hPa WNW 8.0 mph /  12.9 km/h 15.0 mph /  24.1 km/h 84 % 0.00 in /  0 mm 0 W/m2
04:50 42.8 °F /  6 °C 38.3 °F /  3.5 °C 29.99 in /  1015.5 hPa WNW 9.0 mph /  14.5 km/h 16.0 mph /  25.7 km/h 84 % 0.00 in /  0 mm 0 W/m2
04:55 42.6 °F /  5.9 °C 38.1 °F /  3.4 °C 30.00 in /  1015.8 hPa WNW 9.0 mph /  14.5 km/h 16.0 mph /  25.7 km/h 84 % 0.00 in /  0 mm 0 W/m2
05:00 42.6 °F /  5.9 °C 38.1 °F /  3.4 °C 30.00 in /  1015.8 hPa WNW 9.0 mph /  14.5 km/h 14.0 mph /  22.5 km/h 84 % 0.00 in /  0 mm 0 W/m2
05:05 42.6 °F /  5.9 °C 38.1 °F /  3.4 °C 30.00 in /  1015.8 hPa WNW 8.0 mph /  12.9 km/h 14.0 mph /  22.5 km/h 84 % 0.00 in /  0 mm 0 W/m2
05:06 42.6 °F /  5.9 °C 38.4 °F /  3.6 °C 29.99 in /  1015.5 hPa WNW 8.0 mph /  12.9 km/h 13.0 mph /  20.9 km/h 85 % 0.00 in /  0 mm 0 W/m2
05:12 42.4 °F /  5.8 °C 38.2 °F /  3.4 °C 30.00 in /  1015.8 hPa WNW 8.0 mph /  12.9 km/h 13.0 mph /  20.9 km/h 85 % 0.00 in /  0 mm 0 W/m2
05:17 42.4 °F /  5.8 °C 38.2 °F /  3.4 °C 30.00 in /  1015.8 hPa WNW 6.0 mph /  9.7 km/h 13.0 mph /  20.9 km/h 85 % 0.00 in /  0 mm 0 W/m2
05:22 42.4 °F /  5.8 °C 38.2 °F /  3.4 °C 30.00 in /  1015.8 hPa WNW 6.0 mph /  9.7 km/h 13.0 mph /  20.9 km/h 85 % 0.00 in /  0 mm 0 W/m2
05:27 42.4 °F /  5.8 °C 38.5 °F /  3.6 °C 30.00 in /  1015.8 hPa NW 7.0 mph /  11.3 km/h 13.0 mph /  20.9 km/h 86 % 0.00 in /  0 mm 0 W/m2
05:32 42.4 °F /  5.8 °C 38.5 °F /  3.6 °C 30.00 in /  1015.8 hPa NW 7.0 mph /  11.3 km/h 13.0 mph /  20.9 km/h 86 % 0.00 in /  0 mm 0 W/m2
05:37 42.6 °F /  5.9 °C 38.7 °F /  3.7 °C 30.00 in /  1015.8 hPa WNW 6.0 mph /  9.7 km/h 13.0 mph /  20.9 km/h 86 % 0.00 in /  0 mm 0 W/m2
05:42 42.6 °F /  5.9 °C 38.7 °F /  3.7 °C 30.00 in /  1015.8 hPa WNW 6.0 mph /  9.7 km/h 11.0 mph /  17.7 km/h 86 % 0.00 in /  0 mm 0 W/m2
05:47 42.6 °F /  5.9 °C 38.7 °F /  3.7 °C 30.00 in /  1015.8 hPa WNW 6.0 mph /  9.7 km/h 12.0 mph /  19.3 km/h 86 % 0.00 in /  0 mm 0 W/m2
05:52 42.6 °F /  5.9 °C 38.7 °F /  3.7 °C 30.00 in /  1015.8 hPa WNW 7.0 mph /  11.3 km/h 12.0 mph /  19.3 km/h 86 % 0.00 in /  0 mm 0 W/m2
05:57 42.4 °F /  5.8 °C 38.5 °F /  3.6 °C 30.00 in /  1015.8 hPa WNW 7.0 mph /  11.3 km/h 13.0 mph /  20.9 km/h 86 % 0.00 in /  0 mm 0 W/m2
06:02 42.6 °F /  5.9 °C 38.7 °F /  3.7 °C 30.00 in /  1015.8 hPa WNW 8.0 mph /  12.9 km/h 14.0 mph /  22.5 km/h 86 % 0.00 in /  0 mm 0 W/m2
06:07 42.6 °F /  5.9 °C 38.4 °F /  3.6 °C 30.00 in /  1015.8 hPa WNW 8.0 mph /  12.9 km/h 15.0 mph /  24.1 km/h 85 % 0.00 in /  0 mm 5 W/m2
06:12 42.6 °F /  5.9 °C 38.4 °F /  3.6 °C 30.00 in /  1015.8 hPa WNW 7.0 mph /  11.3 km/h 15.0 mph /  24.1 km/h 85 % 0.00 in /  0 mm 7 W/m2
06:17 42.6 °F /  5.9 °C 38.4 °F /  3.6 °C 30.00 in /  1015.8 hPa WNW 6.0 mph /  9.7 km/h 11.0 mph /  17.7 km/h 85 % 0.00 in /  0 mm 12 W/m2
06:22 43.0 °F /  6.1 °C 38.8 °F /  3.8 °C 30.00 in /  1015.8 hPa WNW 6.0 mph /  9.7 km/h 11.0 mph /  17.7 km/h 85 % 0.00 in /  0 mm 12 W/m2
06:27 43.0 °F /  6.1 °C 38.8 °F /  3.8 °C 30.00 in /  1015.8 hPa WNW 6.0 mph /  9.7 km/h 11.0 mph /  17.7 km/h 85 % 0.00 in /  0 mm 18 W/m2
06:32 43.2 °F /  6.2 °C 39.0 °F /  3.9 °C 30.00 in /  1015.8 hPa WNW 5.0 mph /  8 km/h 12.0 mph /  19.3 km/h 85 % 0.00 in /  0 mm 23 W/m2
06:37 43.3 °F /  6.3 °C 39.1 °F /  3.9 °C 30.00 in /  1015.8 hPa WNW 6.0 mph /  9.7 km/h 13.0 mph /  20.9 km/h 85 % 0.00 in /  0 mm 21 W/m2
06:42 43.5 °F /  6.4 °C 39.3 °F /  4.1 °C 30.00 in /  1015.8 hPa WNW 7.0 mph /  11.3 km/h 13.0 mph /  20.9 km/h 85 % 0.00 in /  0 mm 23 W/m2
06:47 43.5 °F /  6.4 °C 39.3 °F /  4.1 °C 30.00 in /  1015.8 hPa WNW 8.0 mph /  12.9 km/h 14.0 mph /  22.5 km/h 85 % 0.00 in /  0 mm 25 W/m2
06:52 43.7 °F /  6.5 °C 39.2 °F /  4 °C 30.00 in /  1015.8 hPa WNW 8.0 mph /  12.9 km/h 15.0 mph /  24.1 km/h 84 % 0.00 in /  0 mm 26 W/m2
06:53 43.7 °F /  6.5 °C 39.2 °F /  4 °C 30.01 in /  1016.1 hPa WNW 8.0 mph /  12.9 km/h 15.0 mph /  24.1 km/h 84 % 0.00 in /  0 mm 26 W/m2
06:58 43.7 °F /  6.5 °C 39.2 °F /  4 °C 30.01 in /  1016.1 hPa WNW 7.0 mph /  11.3 km/h 15.0 mph /  24.1 km/h 84 % 0.00 in /  0 mm 30 W/m2
07:03 43.5 °F /  6.4 °C 39.0 °F /  3.9 °C 30.00 in /  1015.8 hPa NW 8.0 mph /  12.9 km/h 15.0 mph /  24.1 km/h 84 % 0.00 in /  0 mm 33 W/m2
07:08 43.7 °F /  6.5 °C 39.2 °F /  4 °C 30.00 in /  1015.8 hPa WNW 10.0 mph /  16.1 km/h 21.0 mph /  33.8 km/h 84 % 0.00 in /  0 mm 37 W/m2
07:13 43.7 °F /  6.5 °C 39.2 °F /  4 °C 30.00 in /  1015.8 hPa WNW 11.0 mph /  17.7 km/h 21.0 mph /  33.8 km/h 84 % 0.00 in /  0 mm 44 W/m2
07:18 43.9 °F /  6.6 °C 39.1 °F /  3.9 °C 30.00 in /  1015.8 hPa WNW 11.0 mph /  17.7 km/h 22.0 mph /  35.4 km/h 83 % 0.00 in /  0 mm 51 W/m2
07:24 43.9 °F /  6.6 °C 39.1 °F /  3.9 °C 30.01 in /  1016.1 hPa WNW 11.0 mph /  17.7 km/h 22.0 mph /  35.4 km/h 83 % 0.00 in /  0 mm 60 W/m2
07:29 43.9 °F /  6.6 °C 39.1 °F /  3.9 °C 30.01 in /  1016.1 hPa WNW 10.0 mph /  16.1 km/h 16.0 mph /  25.7 km/h 83 % 0.00 in /  0 mm 74 W/m2
07:34 44.1 °F /  6.7 °C 39.2 °F /  4 °C 30.01 in /  1016.1 hPa WNW 9.0 mph /  14.5 km/h 18.0 mph /  29 km/h 83 % 0.00 in /  0 mm 97 W/m2
07:39 44.2 °F /  6.8 °C 39.4 °F /  4.1 °C 30.02 in /  1016.5 hPa WNW 7.0 mph /  11.3 km/h 18.0 mph /  29 km/h 83 % 0.00 in /  0 mm 186 W/m2
07:44 44.6 °F /  7 °C 39.8 °F /  4.3 °C 30.02 in /  1016.5 hPa WNW 5.0 mph /  8 km/h 15.0 mph /  24.1 km/h 83 % 0.00 in /  0 mm 195 W/m2
07:49 45.0 °F /  7.2 °C 39.8 °F /  4.3 °C 30.03 in /  1016.8 hPa WNW 5.0 mph /  8 km/h 12.0 mph /  19.3 km/h 82 % 0.00 in /  0 mm 200 W/m2
07:54 45.3 °F /  7.4 °C 39.8 °F /  4.3 °C 30.02 in /  1016.5 hPa WNW 5.0 mph /  8 km/h 12.0 mph /  19.3 km/h 81 % 0.00 in /  0 mm 183 W/m2
07:59 45.7 °F /  7.6 °C 40.2 °F /  4.6 °C 30.02 in /  1016.5 hPa WNW 7.0 mph /  11.3 km/h 14.0 mph /  22.5 km/h 81 % 0.00 in /  0 mm 158 W/m2
08:04 46.0 °F /  7.8 °C 40.2 °F /  4.6 °C 30.02 in /  1016.5 hPa WNW 8.0 mph /  12.9 km/h 18.0 mph /  29 km/h 80 % 0.00 in /  0 mm 167 W/m2
08:05 46.0 °F /  7.8 °C 40.2 °F /  4.6 °C 30.02 in /  1016.5 hPa WNW 9.0 mph /  14.5 km/h 18.0 mph /  29 km/h 80 % 0.00 in /  0 mm 125 W/m2
08:10 46.0 °F /  7.8 °C 40.2 °F /  4.6 °C 30.03 in /  1016.8 hPa WNW 8.0 mph /  12.9 km/h 18.0 mph /  29 km/h 80 % 0.00 in /  0 mm 125 W/m2
08:15 46.2 °F /  7.9 °C 40.4 °F /  4.7 °C 30.03 in /  1016.8 hPa WNW 8.0 mph /  12.9 km/h 19.0 mph /  30.6 km/h 80 % 0.00 in /  0 mm 153 W/m2
08:20 46.2 °F /  7.9 °C 40.4 °F /  4.7 °C 30.03 in /  1016.8 hPa WNW 9.0 mph /  14.5 km/h 19.0 mph /  30.6 km/h 80 % 0.00 in /  0 mm 114 W/m2
08:25 46.2 °F /  7.9 °C 40.4 °F /  4.7 °C 30.03 in /  1016.8 hPa WNW 9.0 mph /  14.5 km/h 16.0 mph /  25.7 km/h 80 % 0.00 in /  0 mm 214 W/m2
08:30 46.4 °F /  8 °C 40.6 °F /  4.8 °C 30.03 in /  1016.8 hPa WNW 9.0 mph /  14.5 km/h 19.0 mph /  30.6 km/h 80 % 0.00 in /  0 mm 116 W/m2
08:35 46.6 °F /  8.1 °C 40.7 °F /  4.8 °C 30.03 in /  1016.8 hPa WNW 8.0 mph /  12.9 km/h 19.0 mph /  30.6 km/h 80 % 0.00 in /  0 mm 171 W/m2
08:40 46.6 °F /  8.1 °C 40.4 °F /  4.7 °C 30.03 in /  1016.8 hPa WNW 9.0 mph /  14.5 km/h 14.0 mph /  22.5 km/h 79 % 0.00 in /  0 mm 167 W/m2
08:45 46.8 °F /  8.2 °C 40.6 °F /  4.8 °C 30.03 in /  1016.8 hPa WNW 9.0 mph /  14.5 km/h 14.0 mph /  22.5 km/h 79 % 0.00 in /  0 mm 105 W/m2
08:51 46.8 °F /  8.2 °C 40.6 °F /  4.8 °C 30.03 in /  1016.8 hPa WNW 8.0 mph /  12.9 km/h 12.0 mph /  19.3 km/h 79 % 0.00 in /  0 mm 139 W/m2
08:56 46.8 °F /  8.2 °C 40.9 °F /  4.9 °C 30.03 in /  1016.8 hPa WNW 9.0 mph /  14.5 km/h 15.0 mph /  24.1 km/h 80 % 0.00 in /  0 mm 311 W/m2
09:01 47.3 °F /  8.5 °C 41.4 °F /  5.2 °C 30.03 in /  1016.8 hPa WNW 10.0 mph /  16.1 km/h 15.0 mph /  24.1 km/h 80 % 0.00 in /  0 mm 462 W/m2
09:06 47.8 °F /  8.8 °C 41.6 °F /  5.3 °C 30.03 in /  1016.8 hPa WNW 9.0 mph /  14.5 km/h 15.0 mph /  24.1 km/h 79 % 0.00 in /  0 mm 483 W/m2
09:11 48.7 °F /  9.3 °C 42.2 °F /  5.7 °C 30.03 in /  1016.8 hPa WNW 9.0 mph /  14.5 km/h 15.0 mph /  24.1 km/h 78 % 0.00 in /  0 mm 522 W/m2
09:16 49.3 °F /  9.6 °C 42.0 °F /  5.6 °C 30.03 in /  1016.8 hPa WNW 9.0 mph /  14.5 km/h 15.0 mph /  24.1 km/h 76 % 0.00 in /  0 mm 450 W/m2
09:21 49.6 °F /  9.8 °C 42.0 °F /  5.6 °C 30.03 in /  1016.8 hPa WNW 9.0 mph /  14.5 km/h 15.0 mph /  24.1 km/h 75 % 0.00 in /  0 mm 327 W/m2
09:26 49.6 °F /  9.8 °C 41.3 °F /  5.2 °C 30.03 in /  1016.8 hPa WNW 9.0 mph /  14.5 km/h 19.0 mph /  30.6 km/h 73 % 0.00 in /  0 mm 311 W/m2
09:31 49.8 °F /  9.9 °C 41.5 °F /  5.3 °C 30.03 in /  1016.8 hPa WNW 10.0 mph /  16.1 km/h 18.0 mph /  29 km/h 73 % 0.00 in /  0 mm 338 W/m2
09:36 50.4 °F /  10.2 °C 41.7 °F /  5.4 °C 30.03 in /  1016.8 hPa WNW 11.0 mph /  17.7 km/h 18.0 mph /  29 km/h 72 % 0.00 in /  0 mm 441 W/m2
09:41 50.4 °F /  10.2 °C 41.3 °F /  5.2 °C 30.03 in /  1016.8 hPa WNW 12.0 mph /  19.3 km/h 18.0 mph /  29 km/h 71 % 0.00 in /  0 mm 418 W/m2
09:46 50.4 °F /  10.2 °C 41.7 °F /  5.4 °C 30.03 in /  1016.8 hPa WNW 11.0 mph /  17.7 km/h 18.0 mph /  29 km/h 72 % 0.00 in /  0 mm 548 W/m2
09:51 50.7 °F /  10.4 °C 41.3 °F /  5.2 °C 30.03 in /  1016.8 hPa WNW 11.0 mph /  17.7 km/h 19.0 mph /  30.6 km/h 70 % 0.00 in /  0 mm 559 W/m2
09:56 51.1 °F /  10.6 °C 41.3 °F /  5.2 °C 30.03 in /  1016.8 hPa WNW 12.0 mph /  19.3 km/h 23.0 mph /  37 km/h 69 % 0.00 in /  0 mm 313 W/m2
10:01 50.9 °F /  10.5 °C 41.1 °F /  5.1 °C 30.03 in /  1016.8 hPa WNW 12.0 mph /  19.3 km/h 23.0 mph /  37 km/h 69 % 0.00 in /  0 mm 450 W/m2
10:06 50.9 °F /  10.5 °C 41.1 °F /  5.1 °C 30.03 in /  1016.8 hPa WNW 12.0 mph /  19.3 km/h 23.0 mph /  37 km/h 69 % 0.00 in /  0 mm 615 W/m2
10:11 51.1 °F /  10.6 °C 41.3 °F /  5.2 °C 30.03 in /  1016.8 hPa WNW 12.0 mph /  19.3 km/h 20.0 mph /  32.2 km/h 69 % 0.00 in /  0 mm 615 W/m2
10:16 51.4 °F /  10.8 °C 42.0 °F /  5.6 °C 30.03 in /  1016.8 hPa WNW 12.0 mph /  19.3 km/h 20.0 mph /  32.2 km/h 70 % 0.00 in /  0 mm 638 W/m2
10:21 51.6 °F /  10.9 °C 41.4 °F /  5.2 °C 30.03 in /  1016.8 hPa WNW 12.0 mph /  19.3 km/h 21.0 mph /  33.8 km/h 68 % 0.00 in /  0 mm 624 W/m2
10:26 52.0 °F /  11.1 °C 41.7 °F /  5.4 °C 30.03 in /  1016.8 hPa WNW 11.0 mph /  17.7 km/h 21.0 mph /  33.8 km/h 68 % 0.00 in /  0 mm 670 W/m2
10:31 52.2 °F /  11.2 °C 41.1 °F /  5.1 °C 30.03 in /  1016.8 hPa WNW 11.0 mph /  17.7 km/h 20.0 mph /  32.2 km/h 66 % 0.00 in /  0 mm 777 W/m2
10:36 52.5 °F /  11.4 °C 41.1 °F /  5.1 °C 30.03 in /  1016.8 hPa WNW 12.0 mph /  19.3 km/h 20.0 mph /  32.2 km/h 65 % 0.00 in /  0 mm 367 W/m2
10:41 52.5 °F /  11.4 °C 40.7 °F /  4.8 °C 30.03 in /  1016.8 hPa WNW 11.0 mph /  17.7 km/h 21.0 mph /  33.8 km/h 64 % 0.00 in /  0 mm 396 W/m2
10:46 52.3 °F /  11.3 °C 40.9 °F /  4.9 °C 30.04 in /  1017.2 hPa WNW 11.0 mph /  17.7 km/h 21.0 mph /  33.8 km/h 65 % 0.00 in /  0 mm 304 W/m2
10:51 52.2 °F /  11.2 °C 40.7 °F /  4.8 °C 30.04 in /  1017.2 hPa West 11.0 mph /  17.7 km/h 18.0 mph /  29 km/h 65 % 0.00 in /  0 mm 225 W/m2
10:56 51.6 °F /  10.9 °C 40.6 °F /  4.8 °C 30.04 in /  1017.2 hPa WNW 10.0 mph /  16.1 km/h 16.0 mph /  25.7 km/h 66 % 0.00 in /  0 mm 236 W/m2
11:01 51.4 °F /  10.8 °C 40.8 °F /  4.9 °C 30.04 in /  1017.2 hPa WNW 8.0 mph /  12.9 km/h 15.0 mph /  24.1 km/h 67 % 0.00 in /  0 mm 348 W/m2
11:06 51.6 °F /  10.9 °C 41.4 °F /  5.2 °C 30.04 in /  1017.2 hPa WNW 8.0 mph /  12.9 km/h 15.0 mph /  24.1 km/h 68 % 0.00 in /  0 mm 383 W/m2
11:11 52.3 °F /  11.3 °C 41.3 °F /  5.2 °C 30.04 in /  1017.2 hPa WNW 9.0 mph /  14.5 km/h 21.0 mph /  33.8 km/h 66 % 0.00 in /  0 mm 902 W/m2
11:16 52.7 °F /  11.5 °C 40.5 °F /  4.7 °C 30.04 in /  1017.2 hPa WNW 11.0 mph /  17.7 km/h 21.0 mph /  33.8 km/h 63 % 0.00 in /  0 mm 446 W/m2
11:21 53.1 °F /  11.7 °C 41.2 °F /  5.1 °C 30.04 in /  1017.2 hPa WNW 11.0 mph /  17.7 km/h 19.0 mph /  30.6 km/h 64 % 0.00 in /  0 mm 930 W/m2
11:26 54.0 °F /  12.2 °C 42.1 °F /  5.6 °C 30.03 in /  1016.8 hPa WNW 10.0 mph /  16.1 km/h 21.0 mph /  33.8 km/h 64 % 0.00 in /  0 mm 1081 W/m2
11:31 54.7 °F /  12.6 °C 41.9 °F /  5.5 °C 30.03 in /  1016.8 hPa WNW 12.0 mph /  19.3 km/h 21.0 mph /  33.8 km/h 62 % 0.00 in /  0 mm 1041 W/m2
11:36 54.7 °F /  12.6 °C 41.9 °F /  5.5 °C 30.03 in /  1016.8 hPa WNW 12.0 mph /  19.3 km/h 20.0 mph /  32.2 km/h 62 % 0.00 in /  0 mm 283 W/m2
11:41 54.3 °F /  12.4 °C 42.0 °F /  5.6 °C 30.03 in /  1016.8 hPa WNW 10.0 mph /  16.1 km/h 20.0 mph /  32.2 km/h 63 % 0.00 in /  0 mm 921 W/m2
11:46 54.0 °F /  12.2 °C 41.2 °F /  5.1 °C 30.03 in /  1016.8 hPa West 10.0 mph /  16.1 km/h 15.0 mph /  24.1 km/h 62 % 0.00 in /  0 mm 378 W/m2
11:52 53.2 °F /  11.8 °C 41.4 °F /  5.2 °C 30.03 in /  1016.8 hPa West 10.0 mph /  16.1 km/h 15.0 mph /  24.1 km/h 64 % 0.00 in /  0 mm 236 W/m2
11:56 53.1 °F /  11.7 °C 41.2 °F /  5.1 °C 30.03 in /  1016.8 hPa WNW 10.0 mph /  16.1 km/h 16.0 mph /  25.7 km/h 64 % 0.00 in /  0 mm 329 W/m2
12:02 53.2 °F /  11.8 °C 41.8 °F /  5.4 °C 30.02 in /  1016.5 hPa WNW 9.0 mph /  14.5 km/h 16.0 mph /  25.7 km/h 65 % 0.00 in /  0 mm 330 W/m2
12:07 53.2 °F /  11.8 °C 41.0 °F /  5 °C 30.02 in /  1016.5 hPa West 9.0 mph /  14.5 km/h 16.0 mph /  25.7 km/h 63 % 0.00 in /  0 mm 345 W/m2
12:12 53.1 °F /  11.7 °C 40.4 °F /  4.7 °C 30.02 in /  1016.5 hPa WNW 10.0 mph /  16.1 km/h 19.0 mph /  30.6 km/h 62 % 0.00 in /  0 mm 394 W/m2
12:17 52.9 °F /  11.6 °C 41.0 °F /  5 °C 30.02 in /  1016.5 hPa WNW 11.0 mph /  17.7 km/h 19.0 mph /  30.6 km/h 64 % 0.00 in /  0 mm 279 W/m2
12:22 52.9 °F /  11.6 °C 41.0 °F /  5 °C 30.02 in /  1016.5 hPa WNW 11.0 mph /  17.7 km/h 21.0 mph /  33.8 km/h 64 % 0.00 in /  0 mm 345 W/m2
12:27 53.2 °F /  11.8 °C 41.4 °F /  5.2 °C 30.02 in /  1016.5 hPa WNW 11.0 mph /  17.7 km/h 21.0 mph /  33.8 km/h 64 % 0.00 in /  0 mm 490 W/m2
12:32 53.2 °F /  11.8 °C 41.0 °F /  5 °C 30.02 in /  1016.5 hPa WNW 11.0 mph /  17.7 km/h 16.0 mph /  25.7 km/h 63 % 0.00 in /  0 mm 297 W/m2
12:37 53.1 °F /  11.7 °C 40.8 °F /  4.9 °C 30.02 in /  1016.5 hPa WNW 11.0 mph /  17.7 km/h 16.0 mph /  25.7 km/h 63 % 0.00 in /  0 mm 403 W/m2
12:42 53.4 °F /  11.9 °C 40.7 °F /  4.8 °C 30.02 in /  1016.5 hPa WNW 11.0 mph /  17.7 km/h 16.0 mph /  25.7 km/h 62 % 0.00 in /  0 mm 1023 W/m2
12:47 54.0 °F /  12.2 °C 40.4 °F /  4.7 °C 30.02 in /  1016.5 hPa WNW 11.0 mph /  17.7 km/h 20.0 mph /  32.2 km/h 60 % 0.00 in /  0 mm 278 W/m2
12:52 54.0 °F /  12.2 °C 40.8 °F /  4.9 °C 30.02 in /  1016.5 hPa WNW 11.0 mph /  17.7 km/h 20.0 mph /  32.2 km/h 61 % 0.00 in /  0 mm 364 W/m2
12:57 54.0 °F /  12.2 °C 40.4 °F /  4.7 °C 30.02 in /  1016.5 hPa WNW 10.0 mph /  16.1 km/h 19.0 mph /  30.6 km/h 60 % 0.00 in /  0 mm 396 W/m2
13:02 53.8 °F /  12.1 °C 39.8 °F /  4.3 °C 30.02 in /  1016.5 hPa WNW 11.0 mph /  17.7 km/h 19.0 mph /  30.6 km/h 59 % 0.00 in /  0 mm 381 W/m2
13:07 54.0 °F /  12.2 °C 40.4 °F /  4.7 °C 30.02 in /  1016.5 hPa West 11.0 mph /  17.7 km/h 19.0 mph /  30.6 km/h 60 % 0.00 in /  0 mm 323 W/m2
13:12 54.0 °F /  12.2 °C 40.4 °F /  4.7 °C 30.02 in /  1016.5 hPa West 11.0 mph /  17.7 km/h 19.0 mph /  30.6 km/h 60 % 0.00 in /  0 mm 260 W/m2
13:17 53.8 °F /  12.1 °C 40.6 °F /  4.8 °C 30.02 in /  1016.5 hPa WNW 11.0 mph /  17.7 km/h 21.0 mph /  33.8 km/h 61 % 0.00 in /  0 mm 253 W/m2
13:22 53.4 °F /  11.9 °C 40.3 °F /  4.6 °C 30.02 in /  1016.5 hPa WNW 11.0 mph /  17.7 km/h 21.0 mph /  33.8 km/h 61 % 0.00 in /  0 mm 329 W/m2
13:27 53.2 °F /  11.8 °C 40.5 °F /  4.7 °C 30.02 in /  1016.5 hPa WNW 10.0 mph /  16.1 km/h 16.0 mph /  25.7 km/h 62 % 0.00 in /  0 mm 278 W/m2
13:32 53.1 °F /  11.7 °C 40.4 °F /  4.7 °C 30.02 in /  1016.5 hPa West 10.0 mph /  16.1 km/h 15.0 mph /  24.1 km/h 62 % 0.00 in /  0 mm 357 W/m2
13:37 53.1 °F /  11.7 °C 40.4 °F /  4.7 °C 30.02 in /  1016.5 hPa West 9.0 mph /  14.5 km/h 15.0 mph /  24.1 km/h 62 % 0.00 in /  0 mm 371 W/m2
13:38 53.1 °F /  11.7 °C 40.4 °F /  4.7 °C 30.02 in /  1016.5 hPa West 9.0 mph /  14.5 km/h 15.0 mph /  24.1 km/h 62 % 0.00 in /  0 mm 371 W/m2
13:43 53.2 °F /  11.8 °C 40.5 °F /  4.7 °C 30.02 in /  1016.5 hPa West 10.0 mph /  16.1 km/h 19.0 mph /  30.6 km/h 62 % 0.00 in /  0 mm 357 W/m2
13:48 53.2 °F /  11.8 °C 40.5 °F /  4.7 °C 30.02 in /  1016.5 hPa WNW 10.0 mph /  16.1 km/h 19.0 mph /  30.6 km/h 62 % 0.00 in /  0 mm 220 W/m2
13:53 53.1 °F /  11.7 °C 40.4 °F /  4.7 °C 30.02 in /  1016.5 hPa West 10.0 mph /  16.1 km/h 19.0 mph /  30.6 km/h 62 % 0.00 in /  0 mm 287 W/m2
13:58 52.9 °F /  11.6 °C 40.2 °F /  4.6 °C 30.02 in /  1016.5 hPa West 12.0 mph /  19.3 km/h 21.0 mph /  33.8 km/h 62 % 0.00 in /  0 mm 251 W/m2
14:03 52.7 °F /  11.5 °C 40.0 °F /  4.4 °C 30.02 in /  1016.5 hPa WNW 12.0 mph /  19.3 km/h 21.0 mph /  33.8 km/h 62 % 0.00 in /  0 mm 269 W/m2
14:08 52.5 °F /  11.4 °C 40.3 °F /  4.6 °C 30.02 in /  1016.5 hPa WNW 11.0 mph /  17.7 km/h 20.0 mph /  32.2 km/h 63 % 0.00 in /  0 mm 199 W/m2
14:13 52.5 °F /  11.4 °C 40.7 °F /  4.8 °C 30.02 in /  1016.5 hPa WNW 9.0 mph /  14.5 km/h 20.0 mph /  32.2 km/h 64 % 0.00 in /  0 mm 167 W/m2
14:18 52.5 °F /  11.4 °C 40.7 °F /  4.8 °C 30.02 in /  1016.5 hPa WNW 10.0 mph /  16.1 km/h 16.0 mph /  25.7 km/h 64 % 0.00 in /  0 mm 246 W/m2
14:23 52.5 °F /  11.4 °C 40.7 °F /  4.8 °C 30.02 in /  1016.5 hPa WNW 10.0 mph /  16.1 km/h 16.0 mph /  25.7 km/h 64 % 0.00 in /  0 mm 322 W/m2
14:28 52.9 °F /  11.6 °C 41.0 °F /  5 °C 30.02 in /  1016.5 hPa WNW 10.0 mph /  16.1 km/h 16.0 mph /  25.7 km/h 64 % 0.00 in /  0 mm 274 W/m2
14:33 52.9 °F /  11.6 °C 40.6 °F /  4.8 °C 30.02 in /  1016.5 hPa WNW 9.0 mph /  14.5 km/h 15.0 mph /  24.1 km/h 63 % 0.00 in /  0 mm 274 W/m2
14:38 53.1 °F /  11.7 °C 40.8 °F /  4.9 °C 30.02 in /  1016.5 hPa WNW 9.0 mph /  14.5 km/h 20.0 mph /  32.2 km/h 63 % 0.00 in /  0 mm 285 W/m2
14:43 53.1 °F /  11.7 °C 40.4 °F /  4.7 °C 30.02 in /  1016.5 hPa WNW 10.0 mph /  16.1 km/h 20.0 mph /  32.2 km/h 62 % 0.00 in /  0 mm 200 W/m2
14:48 52.7 °F /  11.5 °C 40.0 °F /  4.4 °C 30.02 in /  1016.5 hPa WNW 11.0 mph /  17.7 km/h 20.0 mph /  32.2 km/h 62 % 0.00 in /  0 mm 155 W/m2
14:53 52.5 °F /  11.4 °C 40.3 °F /  4.6 °C 30.02 in /  1016.5 hPa WNW 10.0 mph /  16.1 km/h 20.0 mph /  32.2 km/h 63 % 0.00 in /  0 mm 186 W/m2
14:58 52.3 °F /  11.3 °C 40.1 °F /  4.5 °C 30.02 in /  1016.5 hPa WNW 9.0 mph /  14.5 km/h 19.0 mph /  30.6 km/h 63 % 0.00 in /  0 mm 253 W/m2
15:03 52.3 °F /  11.3 °C 40.5 °F /  4.7 °C 30.02 in /  1016.5 hPa WNW 10.0 mph /  16.1 km/h 19.0 mph /  30.6 km/h 64 % 0.00 in /  0 mm 257 W/m2
15:08 52.3 °F /  11.3 °C 40.1 °F /  4.5 °C 30.02 in /  1016.5 hPa WNW 10.0 mph /  16.1 km/h 19.0 mph /  30.6 km/h 63 % 0.00 in /  0 mm 281 W/m2
15:13 52.3 °F /  11.3 °C 40.1 °F /  4.5 °C 30.02 in /  1016.5 hPa WNW 11.0 mph /  17.7 km/h 20.0 mph /  32.2 km/h 63 % 0.00 in /  0 mm 380 W/m2
15:18 52.7 °F /  11.5 °C 40.5 °F /  4.7 °C 30.02 in /  1016.5 hPa WNW 12.0 mph /  19.3 km/h 22.0 mph /  35.4 km/h 63 % 0.00 in /  0 mm 403 W/m2
15:23 53.1 °F /  11.7 °C 40.4 °F /  4.7 °C 30.02 in /  1016.5 hPa WNW 12.0 mph /  19.3 km/h 22.0 mph /  35.4 km/h 62 % 0.00 in /  0 mm 403 W/m2
15:28 53.2 °F /  11.8 °C 41.0 °F /  5 °C 30.02 in /  1016.5 hPa West 12.0 mph /  19.3 km/h 21.0 mph /  33.8 km/h 63 % 0.00 in /  0 mm 485 W/m2
15:33 53.6 °F /  12 °C 40.5 °F /  4.7 °C 30.02 in /  1016.5 hPa West 13.0 mph /  20.9 km/h 19.0 mph /  30.6 km/h 61 % 0.00 in /  0 mm 599 W/m2
15:38 53.4 °F /  11.9 °C 40.3 °F /  4.6 °C 30.02 in /  1016.5 hPa West 12.0 mph /  19.3 km/h 19.0 mph /  30.6 km/h 61 % 0.00 in /  0 mm 241 W/m2
15:43 53.2 °F /  11.8 °C 40.5 °F /  4.7 °C 30.02 in /  1016.5 hPa West 9.0 mph /  14.5 km/h 18.0 mph /  29 km/h 62 % 0.00 in /  0 mm 192 W/m2
15:48 53.4 °F /  11.9 °C 39.9 °F /  4.4 °C 30.02 in /  1016.5 hPa WNW 9.0 mph /  14.5 km/h 18.0 mph /  29 km/h 60 % 0.00 in /  0 mm 160 W/m2
15:53 53.2 °F /  11.8 °C 39.7 °F /  4.3 °C 30.02 in /  1016.5 hPa WNW 10.0 mph /  16.1 km/h 19.0 mph /  30.6 km/h 60 % 0.00 in /  0 mm 172 W/m2
15:58 52.9 °F /  11.6 °C 39.8 °F /  4.3 °C 30.02 in /  1016.5 hPa WNW 11.0 mph /  17.7 km/h 20.0 mph /  32.2 km/h 61 % 0.00 in /  0 mm 162 W/m2
16:03 52.5 °F /  11.4 °C 39.9 °F /  4.4 °C 30.02 in /  1016.5 hPa WNW 12.0 mph /  19.3 km/h 22.0 mph /  35.4 km/h 62 % 0.00 in /  0 mm 144 W/m2
16:08 52.2 °F /  11.2 °C 39.9 °F /  4.4 °C 30.02 in /  1016.5 hPa WNW 12.0 mph /  19.3 km/h 22.0 mph /  35.4 km/h 63 % 0.00 in /  0 mm 125 W/m2
16:13 52.0 °F /  11.1 °C 40.2 °F /  4.6 °C 30.02 in /  1016.5 hPa WNW 12.0 mph /  19.3 km/h 20.0 mph /  32.2 km/h 64 % 0.00 in /  0 mm 144 W/m2
16:18 51.6 °F /  10.9 °C 39.8 °F /  4.3 °C 30.02 in /  1016.5 hPa WNW 12.0 mph /  19.3 km/h 20.0 mph /  32.2 km/h 64 % 0.00 in /  0 mm 188 W/m2
16:23 51.6 °F /  10.9 °C 40.6 °F /  4.8 °C 30.02 in /  1016.5 hPa West 11.0 mph /  17.7 km/h 19.0 mph /  30.6 km/h 66 % 0.00 in /  0 mm 176 W/m2
16:28 51.6 °F /  10.9 °C 40.2 °F /  4.6 °C 30.02 in /  1016.5 hPa WNW 12.0 mph /  19.3 km/h 19.0 mph /  30.6 km/h 65 % 0.00 in /  0 mm 209 W/m2
16:33 51.4 °F /  10.8 °C 40.1 °F /  4.5 °C 30.02 in /  1016.5 hPa WNW 12.0 mph /  19.3 km/h 20.0 mph /  32.2 km/h 65 % 0.00 in /  0 mm 179 W/m2
16:38 51.4 °F /  10.8 °C 40.1 °F /  4.5 °C 30.02 in /  1016.5 hPa West 12.0 mph /  19.3 km/h 20.0 mph /  32.2 km/h 65 % 0.00 in /  0 mm 223 W/m2
16:43 51.4 °F /  10.8 °C 40.1 °F /  4.5 °C 30.02 in /  1016.5 hPa West 11.0 mph /  17.7 km/h 19.0 mph /  30.6 km/h 65 % 0.00 in /  0 mm 248 W/m2
16:48 51.4 °F /  10.8 °C 40.1 °F /  4.5 °C 30.01 in /  1016.1 hPa West 12.0 mph /  19.3 km/h 19.0 mph /  30.6 km/h 65 % 0.00 in /  0 mm 192 W/m2
16:53 51.4 °F /  10.8 °C 40.1 °F /  4.5 °C 30.01 in /  1016.1 hPa West 12.0 mph /  19.3 km/h 19.0 mph /  30.6 km/h 65 % 0.00 in /  0 mm 251 W/m2
16:59 51.6 °F /  10.9 °C 40.6 °F /  4.8 °C 30.01 in /  1016.1 hPa West 10.0 mph /  16.1 km/h 18.0 mph /  29 km/h 66 % 0.00 in /  0 mm 199 W/m2
17:04 52.0 °F /  11.1 °C 41.0 °F /  5 °C 30.01 in /  1016.1 hPa WNW 9.0 mph /  14.5 km/h 14.0 mph /  22.5 km/h 66 % 0.00 in /  0 mm 243 W/m2
17:09 52.2 °F /  11.2 °C 40.3 °F /  4.6 °C 30.01 in /  1016.1 hPa WNW 10.0 mph /  16.1 km/h 18.0 mph /  29 km/h 64 % 0.00 in /  0 mm 151 W/m2
17:14 52.2 °F /  11.2 °C 40.3 °F /  4.6 °C 30.01 in /  1016.1 hPa West 11.0 mph /  17.7 km/h 18.0 mph /  29 km/h 64 % 0.00 in /  0 mm 139 W/m2
17:19 51.8 °F /  11 °C 40.4 °F /  4.7 °C 30.01 in /  1016.1 hPa West 11.0 mph /  17.7 km/h 16.0 mph /  25.7 km/h 65 % 0.00 in /  0 mm 81 W/m2
17:24 51.4 °F /  10.8 °C 40.1 °F /  4.5 °C 30.01 in /  1016.1 hPa West 10.0 mph /  16.1 km/h 16.0 mph /  25.7 km/h 65 % 0.00 in /  0 mm 83 W/m2
17:29 51.3 °F /  10.7 °C 39.9 °F /  4.4 °C 30.01 in /  1016.1 hPa West 10.0 mph /  16.1 km/h 16.0 mph /  25.7 km/h 65 % 0.00 in /  0 mm 81 W/m2
17:34 51.3 °F /  10.7 °C 39.9 °F /  4.4 °C 30.01 in /  1016.1 hPa West 9.0 mph /  14.5 km/h 15.0 mph /  24.1 km/h 65 % 0.00 in /  0 mm 67 W/m2
17:39 51.1 °F /  10.6 °C 40.1 °F /  4.5 °C 30.01 in /  1016.1 hPa WNW 8.0 mph /  12.9 km/h 15.0 mph /  24.1 km/h 66 % 0.00 in /  0 mm 76 W/m2
17:44 51.1 °F /  10.6 °C 40.5 °F /  4.7 °C 30.01 in /  1016.1 hPa West 8.0 mph /  12.9 km/h 13.0 mph /  20.9 km/h 67 % 0.00 in /  0 mm 54 W/m2
17:49 50.9 °F /  10.5 °C 39.9 °F /  4.4 °C 30.01 in /  1016.1 hPa West 8.0 mph /  12.9 km/h 15.0 mph /  24.1 km/h 66 % 0.00 in /  0 mm 49 W/m2
17:54 50.7 °F /  10.4 °C 39.8 °F /  4.3 °C 30.02 in /  1016.5 hPa West 9.0 mph /  14.5 km/h 18.0 mph /  29 km/h 66 % 0.00 in /  0 mm 49 W/m2
17:59 50.5 °F /  10.3 °C 39.6 °F /  4.2 °C 30.01 in /  1016.1 hPa West 9.0 mph /  14.5 km/h 18.0 mph /  29 km/h 66 % 0.00 in /  0 mm 49 W/m2
18:04 50.5 °F /  10.3 °C 40.0 °F /  4.4 °C 30.02 in /  1016.5 hPa WNW 9.0 mph /  14.5 km/h 18.0 mph /  29 km/h 67 % 0.00 in /  0 mm 44 W/m2
18:09 50.4 °F /  10.2 °C 39.8 °F /  4.3 °C 30.02 in /  1016.5 hPa WNW 8.0 mph /  12.9 km/h 14.0 mph /  22.5 km/h 67 % 0.00 in /  0 mm 37 W/m2
18:14 50.4 °F /  10.2 °C 40.2 °F /  4.6 °C 30.01 in /  1016.1 hPa WNW 8.0 mph /  12.9 km/h 14.0 mph /  22.5 km/h 68 % 0.00 in /  0 mm 46 W/m2
18:19 50.2 °F /  10.1 °C 39.6 °F /  4.2 °C 30.02 in /  1016.5 hPa WNW 9.0 mph /  14.5 km/h 15.0 mph /  24.1 km/h 67 % 0.00 in /  0 mm 35 W/m2
18:24 50.0 °F /  10 °C 39.8 °F /  4.3 °C 30.01 in /  1016.1 hPa West 11.0 mph /  17.7 km/h 19.0 mph /  30.6 km/h 68 % 0.00 in /  0 mm 37 W/m2
18:29 49.8 °F /  9.9 °C 40.1 °F /  4.5 °C 30.01 in /  1016.1 hPa WNW 11.0 mph /  17.7 km/h 19.0 mph /  30.6 km/h 69 % 0.00 in /  0 mm 46 W/m2
18:34 49.6 °F /  9.8 °C 39.9 °F /  4.4 °C 30.01 in /  1016.1 hPa WNW 10.0 mph /  16.1 km/h 16.0 mph /  25.7 km/h 69 % 0.00 in /  0 mm 58 W/m2
18:39 49.6 °F /  9.8 °C 39.9 °F /  4.4 °C 30.01 in /  1016.1 hPa WNW 10.0 mph /  16.1 km/h 18.0 mph /  29 km/h 69 % 0.00 in /  0 mm 56 W/m2
18:44 49.5 °F /  9.7 °C 39.7 °F /  4.3 °C 30.01 in /  1016.1 hPa WNW 9.0 mph /  14.5 km/h 18.0 mph /  29 km/h 69 % 0.00 in /  0 mm 63 W/m2
18:49 49.5 °F /  9.7 °C 39.7 °F /  4.3 °C 30.01 in /  1016.1 hPa WNW 8.0 mph /  12.9 km/h 13.0 mph /  20.9 km/h 69 % 0.00 in /  0 mm 58 W/m2
18:54 49.5 °F /  9.7 °C 39.7 °F /  4.3 °C 30.01 in /  1016.1 hPa WNW 7.0 mph /  11.3 km/h 13.0 mph /  20.9 km/h 69 % 0.00 in /  0 mm 42 W/m2
18:59 49.5 °F /  9.7 °C 39.7 °F /  4.3 °C 30.01 in /  1016.1 hPa West 6.0 mph /  9.7 km/h 13.0 mph /  20.9 km/h 69 % 0.00 in /  0 mm 28 W/m2
19:04 49.5 °F /  9.7 °C 39.7 °F /  4.3 °C 30.01 in /  1016.1 hPa West 6.0 mph /  9.7 km/h 11.0 mph /  17.7 km/h 69 % 0.00 in /  0 mm 21 W/m2
19:09 49.5 °F /  9.7 °C 39.3 °F /  4.1 °C 30.01 in /  1016.1 hPa WNW 6.0 mph /  9.7 km/h 10.0 mph /  16.1 km/h 68 % 0.00 in /  0 mm 23 W/m2
19:14 49.5 °F /  9.7 °C 39.0 °F /  3.9 °C 30.01 in /  1016.1 hPa West 7.0 mph /  11.3 km/h 15.0 mph /  24.1 km/h 67 % 0.00 in /  0 mm 26 W/m2
19:19 49.3 °F /  9.6 °C 38.8 °F /  3.8 °C 30.01 in /  1016.1 hPa West 8.0 mph /  12.9 km/h 15.0 mph /  24.1 km/h 67 % 0.00 in /  0 mm 21 W/m2
19:20 49.3 °F /  9.6 °C 39.2 °F /  4 °C 30.01 in /  1016.1 hPa West 8.0 mph /  12.9 km/h 15.0 mph /  24.1 km/h 68 % 0.00 in /  0 mm 21 W/m2
19:25 49.3 °F /  9.6 °C 39.2 °F /  4 °C 30.01 in /  1016.1 hPa West 7.0 mph /  11.3 km/h 12.0 mph /  19.3 km/h 68 % 0.00 in /  0 mm 19 W/m2
19:30 49.3 °F /  9.6 °C 39.2 °F /  4 °C 30.01 in /  1016.1 hPa West 7.0 mph /  11.3 km/h 12.0 mph /  19.3 km/h 68 % 0.00 in /  0 mm 16 W/m2
19:35 49.3 °F /  9.6 °C 39.2 °F /  4 °C 30.01 in /  1016.1 hPa West 7.0 mph /  11.3 km/h 11.0 mph /  17.7 km/h 68 % 0.00 in /  0 mm 12 W/m2
19:40 49.1 °F /  9.5 °C 39.4 °F /  4.1 °C 30.01 in /  1016.1 hPa West 7.0 mph /  11.3 km/h 12.0 mph /  19.3 km/h 69 % 0.00 in /  0 mm 9 W/m2
19:45 49.1 °F /  9.5 °C 39.4 °F /  4.1 °C 30.01 in /  1016.1 hPa WNW 7.0 mph /  11.3 km/h 12.0 mph /  19.3 km/h 69 % 0.00 in /  0 mm 7 W/m2
19:50 49.1 °F /  9.5 °C 39.4 °F /  4.1 °C 30.01 in /  1016.1 hPa WNW 7.0 mph /  11.3 km/h 11.0 mph /  17.7 km/h 69 % 0.00 in /  0 mm 7 W/m2
19:55 48.9 °F /  9.4 °C 39.2 °F /  4 °C 30.01 in /  1016.1 hPa WNW 7.0 mph /  11.3 km/h 11.0 mph /  17.7 km/h 69 % 0.00 in /  0 mm 5 W/m2
20:00 48.9 °F /  9.4 °C 39.6 °F /  4.2 °C 30.01 in /  1016.1 hPa WNW 7.0 mph /  11.3 km/h 11.0 mph /  17.7 km/h 70 % 0.00 in /  0 mm 5 W/m2
20:05 48.7 °F /  9.3 °C 39.4 °F /  4.1 °C 30.01 in /  1016.1 hPa WNW 6.0 mph /  9.7 km/h 10.0 mph /  16.1 km/h 70 % 0.00 in /  0 mm 5 W/m2
20:10 48.6 °F /  9.2 °C 39.6 °F /  4.2 °C 30.01 in /  1016.1 hPa WNW 6.0 mph /  9.7 km/h 9.0 mph /  14.5 km/h 71 % 0.00 in /  0 mm 0 W/m2
20:15 48.6 °F /  9.2 °C 39.6 °F /  4.2 °C 30.01 in /  1016.1 hPa WNW 5.0 mph /  8 km/h 9.0 mph /  14.5 km/h 71 % 0.00 in /  0 mm 0 W/m2
20:20 48.4 °F /  9.1 °C 39.4 °F /  4.1 °C 30.01 in /  1016.1 hPa WNW 6.0 mph /  9.7 km/h 9.0 mph /  14.5 km/h 71 % 0.00 in /  0 mm 0 W/m2
20:25 48.0 °F /  8.9 °C 39.1 °F /  3.9 °C 30.01 in /  1016.1 hPa WNW 6.0 mph /  9.7 km/h 10.0 mph /  16.1 km/h 71 % 0.00 in /  0 mm 0 W/m2
20:30 48.0 °F /  8.9 °C 39.1 °F /  3.9 °C 30.01 in /  1016.1 hPa WNW 5.0 mph /  8 km/h 10.0 mph /  16.1 km/h 71 % 0.00 in /  0 mm 0 W/m2
20:35 47.8 °F /  8.8 °C 38.9 °F /  3.8 °C 30.01 in /  1016.1 hPa WNW 4.0 mph /  6.4 km/h 9.0 mph /  14.5 km/h 71 % 0.00 in /  0 mm 0 W/m2
20:41 47.7 °F /  8.7 °C 38.7 °F /  3.7 °C 30.02 in /  1016.5 hPa WNW 3.0 mph /  4.8 km/h 7.0 mph /  11.3 km/h 71 % 0.00 in /  0 mm 0 W/m2
20:46 47.5 °F /  8.6 °C 38.9 °F /  3.8 °C 30.02 in /  1016.5 hPa WNW 3.0 mph /  4.8 km/h 7.0 mph /  11.3 km/h 72 % 0.00 in /  0 mm 0 W/m2
20:51 47.3 °F /  8.5 °C 38.7 °F /  3.7 °C 30.02 in /  1016.5 hPa NW 2.0 mph /  3.2 km/h 7.0 mph /  11.3 km/h 72 % 0.00 in /  0 mm 0 W/m2
20:56 47.1 °F /  8.4 °C 38.6 °F /  3.7 °C 30.02 in /  1016.5 hPa NW 2.0 mph /  3.2 km/h 6.0 mph /  9.7 km/h 72 % 0.00 in /  0 mm 0 W/m2
21:01 47.1 °F /  8.4 °C 38.9 °F /  3.8 °C 30.02 in /  1016.5 hPa WNW 4.0 mph /  6.4 km/h 9.0 mph /  14.5 km/h 73 % 0.00 in /  0 mm 0 W/m2
21:06 46.9 °F /  8.3 °C 38.7 °F /  3.7 °C 30.02 in /  1016.5 hPa WNW 5.0 mph /  8 km/h 9.0 mph /  14.5 km/h 73 % 0.00 in /  0 mm 0 W/m2
21:11 46.8 °F /  8.2 °C 38.9 °F /  3.8 °C 30.02 in /  1016.5 hPa WNW 5.0 mph /  8 km/h 9.0 mph /  14.5 km/h 74 % 0.00 in /  0 mm 0 W/m2
21:16 46.8 °F /  8.2 °C 38.9 °F /  3.8 °C 30.02 in /  1016.5 hPa WNW 4.0 mph /  6.4 km/h 9.0 mph /  14.5 km/h 74 % 0.00 in /  0 mm 0 W/m2
21:21 46.6 °F /  8.1 °C 38.7 °F /  3.7 °C 30.02 in /  1016.5 hPa WNW 2.0 mph /  3.2 km/h 7.0 mph /  11.3 km/h 74 % 0.00 in /  0 mm 0 W/m2
21:26 46.6 °F /  8.1 °C 39.1 °F /  3.9 °C 30.02 in /  1016.5 hPa WNW 1.0 mph /  1.6 km/h 7.0 mph /  11.3 km/h 75 % 0.00 in /  0 mm 0 W/m2
21:31 46.4 °F /  8 °C 38.9 °F /  3.8 °C 30.02 in /  1016.5 hPa WNW 1.0 mph /  1.6 km/h 7.0 mph /  11.3 km/h 75 % 0.00 in /  0 mm 0 W/m2
21:36 46.4 °F /  8 °C 38.9 °F /  3.8 °C 30.02 in /  1016.5 hPa NW 1.0 mph /  1.6 km/h 6.0 mph /  9.7 km/h 75 % 0.00 in /  0 mm 0 W/m2
21:41 46.4 °F /  8 °C 39.2 °F /  4 °C 30.02 in /  1016.5 hPa NW 1.0 mph /  1.6 km/h 5.0 mph /  8 km/h 76 % 0.00 in /  0 mm 0 W/m2
21:46 46.4 °F /  8 °C 39.2 °F /  4 °C 30.02 in /  1016.5 hPa West 1.0 mph /  1.6 km/h 6.0 mph /  9.7 km/h 76 % 0.00 in /  0 mm 0 W/m2
21:51 46.6 °F /  8.1 °C 39.4 °F /  4.1 °C 30.02 in /  1016.5 hPa WSW 1.0 mph /  1.6 km/h 6.0 mph /  9.7 km/h 76 % 0.00 in /  0 mm 0 W/m2
21:56 46.6 °F /  8.1 °C 39.4 °F /  4.1 °C 30.02 in /  1016.5 hPa Calm   3.0 mph /  4.8 km/h 76 % 0.00 in /  0 mm 0 W/m2
22:01 46.6 °F /  8.1 °C 39.4 °F /  4.1 °C 30.02 in /  1016.5 hPa Calm   1.0 mph /  1.6 km/h 76 % 0.00 in /  0 mm 0 W/m2
22:06 46.8 °F /  8.2 °C 39.9 °F /  4.4 °C 30.02 in /  1016.5 hPa Calm   3.0 mph /  4.8 km/h 77 % 0.00 in /  0 mm 0 W/m2
22:11 46.8 °F /  8.2 °C 39.6 °F /  4.2 °C 30.02 in /  1016.5 hPa SW 1.0 mph /  1.6 km/h 5.0 mph /  8 km/h 76 % 0.00 in /  0 mm 0 W/m2
22:16 46.6 °F /  8.1 °C 39.4 °F /  4.1 °C 30.02 in /  1016.5 hPa SW 3.0 mph /  4.8 km/h 6.0 mph /  9.7 km/h 76 % 0.00 in /  0 mm 0 W/m2
22:21 46.6 °F /  8.1 °C 39.8 °F /  4.3 °C 30.02 in /  1016.5 hPa SW 2.0 mph /  3.2 km/h 6.0 mph /  9.7 km/h 77 % 0.00 in /  0 mm 0 W/m2
22:26 46.6 °F /  8.1 °C 39.8 °F /  4.3 °C 30.02 in /  1016.5 hPa SW 2.0 mph /  3.2 km/h 6.0 mph /  9.7 km/h 77 % 0.00 in /  0 mm 0 W/m2
22:31 46.6 °F /  8.1 °C 39.8 °F /  4.3 °C 30.02 in /  1016.5 hPa WSW 3.0 mph /  4.8 km/h 6.0 mph /  9.7 km/h 77 % 0.00 in /  0 mm 0 W/m2
22:36 46.6 °F /  8.1 °C 39.8 °F /  4.3 °C 30.02 in /  1016.5 hPa WSW 2.0 mph /  3.2 km/h 6.0 mph /  9.7 km/h 77 % 0.00 in /  0 mm 0 W/m2
22:41 46.6 °F /  8.1 °C 39.8 °F /  4.3 °C 30.02 in /  1016.5 hPa WSW 2.0 mph /  3.2 km/h 5.0 mph /  8 km/h 77 % 0.00 in /  0 mm 0 W/m2
22:46 46.6 °F /  8.1 °C 39.8 °F /  4.3 °C 30.01 in /  1016.1 hPa WSW 2.0 mph /  3.2 km/h 6.0 mph /  9.7 km/h 77 % 0.00 in /  0 mm 0 W/m2
22:51 46.6 °F /  8.1 °C 39.8 °F /  4.3 °C 30.01 in /  1016.1 hPa WSW 3.0 mph /  4.8 km/h 7.0 mph /  11.3 km/h 77 % 0.00 in /  0 mm 0 W/m2
22:56 46.6 °F /  8.1 °C 39.8 °F /  4.3 °C 30.01 in /  1016.1 hPa WSW 3.0 mph /  4.8 km/h 7.0 mph /  11.3 km/h 77 % 0.00 in /  0 mm 0 W/m2
23:01 46.6 °F /  8.1 °C 40.1 °F /  4.5 °C 30.01 in /  1016.1 hPa West 3.0 mph /  4.8 km/h 7.0 mph /  11.3 km/h 78 % 0.00 in /  0 mm 0 W/m2
23:06 46.6 °F /  8.1 °C 40.1 °F /  4.5 °C 30.01 in /  1016.1 hPa West 3.0 mph /  4.8 km/h 6.0 mph /  9.7 km/h 78 % 0.00 in /  0 mm 0 W/m2
23:11 46.6 °F /  8.1 °C 40.1 °F /  4.5 °C 30.01 in /  1016.1 hPa West 2.0 mph /  3.2 km/h 6.0 mph /  9.7 km/h 78 % 0.00 in /  0 mm 0 W/m2
23:16 46.6 °F /  8.1 °C 40.4 °F /  4.7 °C 30.01 in /  1016.1 hPa West 2.0 mph /  3.2 km/h 6.0 mph /  9.7 km/h 79 % 0.00 in /  0 mm 0 W/m2
23:21 46.6 °F /  8.1 °C 40.4 °F /  4.7 °C 30.02 in /  1016.5 hPa West 2.0 mph /  3.2 km/h 6.0 mph /  9.7 km/h 79 % 0.00 in /  0 mm 0 W/m2
23:26 46.6 °F /  8.1 °C 40.4 °F /  4.7 °C 30.02 in /  1016.5 hPa West 2.0 mph /  3.2 km/h 6.0 mph /  9.7 km/h 79 % 0.00 in /  0 mm 0 W/m2
23:32 46.6 °F /  8.1 °C 40.4 °F /  4.7 °C 30.01 in /  1016.1 hPa West 3.0 mph /  4.8 km/h 7.0 mph /  11.3 km/h 79 % 0.00 in /  0 mm 0 W/m2
23:37 46.8 °F /  8.2 °C 40.6 °F /  4.8 °C 30.01 in /  1016.1 hPa WNW 4.0 mph /  6.4 km/h 8.0 mph /  12.9 km/h 79 % 0.00 in /  0 mm 0 W/m2
23:42 46.8 °F /  8.2 °C 40.6 °F /  4.8 °C 30.01 in /  1016.1 hPa WNW 5.0 mph /  8 km/h 8.0 mph /  12.9 km/h 79 % 0.00 in /  0 mm 0 W/m2
23:47 46.8 °F /  8.2 °C 40.6 °F /  4.8 °C 30.01 in /  1016.1 hPa WNW 5.0 mph /  8 km/h 12.0 mph /  19.3 km/h 79 % 0.00 in /  0 mm 0 W/m2
23:52 46.8 °F /  8.2 °C 40.6 °F /  4.8 °C 30.01 in /  1016.1 hPa WNW 6.0 mph /  9.7 km/h 12.0 mph /  19.3 km/h 79 % 0.00 in /  0 mm 0 W/m2
23:57 46.8 °F /  8.2 °C 40.6 °F /  4.8 °C 30.01 in /  1016.1 hPa West 7.0 mph /  11.3 km/h 11.0 mph /  17.7 km/h 79 % 0.00 in /  0 mm 0 W/m2
Delerius-Weather
Compliments of Weather Underground - 2.25 mb

Data updates at regular intervals.